6NA6 weather

Public forecast

Using degrees Fahrenheit for public forecast. Weather courtesy of forecast.io.

Closest aviation weather report (METAR) to Marsh Brothers Airstrip

Closest report is Minot Air Force Base, 19.4 nm (36.0 km) SW. Retrieved 2020/08/15 06:56 UTC (49 minutes ago):

KMIB 150656Z AUTO 25004KT 10SM CLR 13/12 A2995 RMK AO2 SLP147 T01250116

Closest aviation forecast (TAF) to Marsh Brothers Airstrip

Forecast is more than 12 hours old.

Closest forecast is Minot Air Force Base, 19.4 nm (36.0 km) SW. Retrieved 2020/08/14 17:12 UTC (15 hours ago):

TAF KMIB 141700Z 1417/1523 VRB06KT 9999 BKN070 QNH2996INS TEMPO 1421/1422 9000 -SHRA BKN060 BECMG 1423/1424 29009KT 9999 SCT090 QNH2990INS BECMG 1505/1506 VRB06KT 9999 SCT090 QNH2993INS BECMG 1514/1515 32012G18KT 9999 SCT090 QNH2997INS TX25/1421Z TN13/1508Z